sensor_id;sensor_type;location;lat;lon;timestamp;pressure;altitude;pressure_sealevel;temperature;humidity
62402;BME280;48440;51.224;22.506;2023-03-25T01:00:27;97971.69;;;13.79;66.76
62402;BME280;48440;51.224;22.506;2023-03-25T01:23:58;97940.63;;;13.67;67.37
62402;BME280;48440;51.224;22.506;2023-03-25T01:26:44;97939.03;;;13.66;67.32
62402;BME280;48440;51.224;22.506;2023-03-25T01:32:55;97953.78;;;13.65;67.47
62402;BME280;48440;51.224;22.506;2023-03-25T01:35:20;97953.78;;;13.65;67.39
62402;BME280;48440;51.224;22.506;2023-03-25T01:37:49;97952.66;;;13.66;67.05
62402;BME280;48440;51.224;22.506;2023-03-25T01:40:21;97950.25;;;13.64;67.41
62402;BME280;48440;51.224;22.506;2023-03-25T02:03:17;97948.28;;;13.42;68.64
62402;BME280;48440;51.224;22.506;2023-03-25T02:06:11;97953.13;;;13.45;68.48
62402;BME280;48440;51.224;22.506;2023-03-25T02:08:45;97950.09;;;13.47;68.46
62402;BME280;48440;51.224;22.506;2023-03-25T02:11:19;97947.34;;;13.47;68.18
62402;BME280;48440;51.224;22.506;2023-03-25T02:14:43;97947.88;;;13.49;68.22
62402;BME280;48440;51.224;22.506;2023-03-25T02:29:34;97955.34;;;13.43;68.57
62402;BME280;48440;51.224;22.506;2023-03-25T02:40:29;97948.47;;;13.32;69.68
62402;BME280;48440;51.224;22.506;2023-03-25T02:43:20;97948.78;;;13.31;69.69
62402;BME280;48440;51.224;22.506;2023-03-25T02:46:04;97949.09;;;13.29;69.63
62402;BME280;48440;51.224;22.506;2023-03-25T02:48:52;97945.25;;;13.30;69.53
62402;BME280;48440;51.224;22.506;2023-03-25T02:51:34;97951.19;;;13.32;69.43
62402;BME280;48440;51.224;22.506;2023-03-25T02:54:17;97945.56;;;13.29;69.56
62402;BME280;48440;51.224;22.506;2023-03-25T02:56:50;97942.22;;;13.32;69.52
62402;BME280;48440;51.224;22.506;2023-03-25T03:06:47;97934.16;;;13.27;69.76
62402;BME280;48440;51.224;22.506;2023-03-25T03:12:12;97942.75;;;13.20;69.96
62402;BME280;48440;51.224;22.506;2023-03-25T03:19:45;97952.09;;;13.14;70.71
62402;BME280;48440;51.224;22.506;2023-03-25T03:27:50;97954.63;;;13.10;70.83
62402;BME280;48440;51.224;22.506;2023-03-25T03:34:44;97947.25;;;13.11;69.08
62402;BME280;48440;51.224;22.506;2023-03-25T03:36:44;97946.16;;;13.12;68.23
62402;BME280;48440;51.224;22.506;2023-03-25T03:42:03;97949.56;;;13.04;67.76
62402;BME280;48440;51.224;22.506;2023-03-25T03:47:52;97960.75;;;13.02;67.50
62402;BME280;48440;51.224;22.506;2023-03-25T03:51:08;97956.72;;;13.00;67.27
62402;BME280;48440;51.224;22.506;2023-03-25T03:53:56;97960.38;;;12.95;66.84
62402;BME280;48440;51.224;22.506;2023-03-25T03:56:44;97964.22;;;12.94;66.93
62402;BME280;48440;51.224;22.506;2023-03-25T04:02:21;97973.59;;;12.88;67.48
62402;BME280;48440;51.224;22.506;2023-03-25T04:04:49;97970.34;;;12.86;67.26
62402;BME280;48440;51.224;22.506;2023-03-25T04:07:21;97974.47;;;12.83;67.64
62402;BME280;48440;51.224;22.506;2023-03-25T04:10:13;97984.66;;;12.78;67.46
62402;BME280;48440;51.224;22.506;2023-03-25T04:12:58;97977.09;;;12.75;67.59
62402;BME280;48440;51.224;22.506;2023-03-25T04:15:30;97983.03;;;12.77;67.48
62402;BME280;48440;51.224;22.506;2023-03-25T04:20:58;97988.91;;;12.70;67.55
62402;BME280;48440;51.224;22.506;2023-03-25T04:23:37;97985.38;;;12.70;67.92
62402;BME280;48440;51.224;22.506;2023-03-25T04:26:21;97987.56;;;12.68;67.69
62402;BME280;48440;51.224;22.506;2023-03-25T04:28:47;97984.06;;;12.67;67.92
62402;BME280;48440;51.224;22.506;2023-03-25T04:31:14;97987.97;;;12.61;68.06
62402;BME280;48440;51.224;22.506;2023-03-25T04:33:43;97985.53;;;12.60;68.20
62402;BME280;48440;51.224;22.506;2023-03-25T04:36:33;97982.31;;;12.57;68.35
62402;BME280;48440;51.224;22.506;2023-03-25T04:39:05;97985.63;;;12.54;67.98
62402;BME280;48440;51.224;22.506;2023-03-25T04:41:33;97996.28;;;12.51;68.21
62402;BME280;48440;51.224;22.506;2023-03-25T04:43:59;98005.84;;;12.48;68.34
62402;BME280;48440;51.224;22.506;2023-03-25T04:46:24;97995.59;;;12.45;68.80
62402;BME280;48440;51.224;22.506;2023-03-25T04:48:50;98006.19;;;12.47;68.44
62402;BME280;48440;51.224;22.506;2023-03-25T04:51:18;98005.66;;;12.45;68.66
62402;BME280;48440;51.224;22.506;2023-03-25T04:53:44;98013.81;;;12.45;68.57
62402;BME280;48440;51.224;22.506;2023-03-25T04:56:15;98012.72;;;12.46;68.57
62402;BME280;48440;51.224;22.506;2023-03-25T04:58:44;98025.72;;;12.49;68.57
62402;BME280;48440;51.224;22.506;2023-03-25T05:01:21;98031.44;;;12.47;68.59
62402;BME280;48440;51.224;22.506;2023-03-25T05:03:48;98018.66;;;12.48;68.40
62402;BME280;48440;51.224;22.506;2023-03-25T05:06:16;98027.50;;;12.40;68.69
62402;BME280;48440;51.224;22.506;2023-03-25T05:08:42;98024.28;;;12.38;68.77
62402;BME280;48440;51.224;22.506;2023-03-25T05:11:07;98022.44;;;12.33;68.97
62402;BME280;48440;51.224;22.506;2023-03-25T05:13:33;98030.09;;;12.31;69.17
62402;BME280;48440;51.224;22.506;2023-03-25T05:15:58;98034.72;;;12.31;69.03
62402;BME280;48440;51.224;22.506;2023-03-25T05:18:24;98054.06;;;12.29;69.06
62402;BME280;48440;51.224;22.506;2023-03-25T05:20:49;98052.59;;;12.37;68.75
62402;BME280;48440;51.224;22.506;2023-03-25T05:23:18;98045.22;;;12.37;68.42
62402;BME280;48440;51.224;22.506;2023-03-25T05:25:48;98051.19;;;12.39;68.49
62402;BME280;48440;51.224;22.506;2023-03-25T05:28:14;98053.09;;;12.39;68.35
62402;BME280;48440;51.224;22.506;2023-03-25T05:30:41;98057.13;;;12.41;68.05
62402;BME280;48440;51.224;22.506;2023-03-25T05:33:13;98052.09;;;12.48;68.11
62402;BME280;48440;51.224;22.506;2023-03-25T05:35:42;98050.41;;;12.52;67.47
62402;BME280;48440;51.224;22.506;2023-03-25T05:38:08;98050.41;;;12.52;67.36
62402;BME280;48440;51.224;22.506;2023-03-25T05:40:37;98039.44;;;12.57;67.22
62402;BME280;48440;51.224;22.506;2023-03-25T05:43:03;98039.66;;;12.61;66.92
62402;BME280;48440;51.224;22.506;2023-03-25T05:45:31;98044.28;;;12.61;67.17
62402;BME280;48440;51.224;22.506;2023-03-25T05:47:56;98044.97;;;12.52;66.94
62402;BME280;48440;51.224;22.506;2023-03-25T05:50:23;98043.88;;;12.53;66.96
62402;BME280;48440;51.224;22.506;2023-03-25T05:52:49;98050.63;;;12.56;66.94
62402;BME280;48440;51.224;22.506;2023-03-25T05:55:19;98059.38;;;12.53;66.96
62402;BME280;48440;51.224;22.506;2023-03-25T05:57:44;98062.50;;;12.46;66.74
62402;BME280;48440;51.224;22.506;2023-03-25T06:00:11;98064.50;;;12.41;67.36
62402;BME280;48440;51.224;22.506;2023-03-25T06:02:44;98055.75;;;12.44;67.19
62402;BME280;48440;51.224;22.506;2023-03-25T06:05:16;98051.63;;;12.46;66.92
62402;BME280;48440;51.224;22.506;2023-03-25T06:07:49;98055.94;;;12.47;66.94
62402;BME280;48440;51.224;22.506;2023-03-25T06:10:18;98053.34;;;12.56;66.92
62402;BME280;48440;51.224;22.506;2023-03-25T06:12:44;98052.38;;;12.66;66.78
62402;BME280;48440;51.224;22.506;2023-03-25T06:15:23;98050.47;;;12.66;66.17
62402;BME280;48440;51.224;22.506;2023-03-25T06:18:00;98050.69;;;12.70;66.11
62402;BME280;48440;51.224;22.506;2023-03-25T06:20:26;98050.38;;;12.71;65.71
62402;BME280;48440;51.224;22.506;2023-03-25T06:22:52;98047.56;;;12.76;65.31
62402;BME280;48440;51.224;22.506;2023-03-25T06:25:18;98053.50;;;12.78;65.68
62402;BME280;48440;51.224;22.506;2023-03-25T06:27:48;98052.09;;;12.81;65.35
62402;BME280;48440;51.224;22.506;2023-03-25T06:30:20;98062.09;;;12.85;65.05
62402;BME280;48440;51.224;22.506;2023-03-25T06:32:46;98061.81;;;12.87;64.84
62402;BME280;48440;51.224;22.506;2023-03-25T06:35:17;98058.19;;;12.91;64.48
62402;BME280;48440;51.224;22.506;2023-03-25T06:37:45;98051.94;;;12.91;64.18
62402;BME280;48440;51.224;22.506;2023-03-25T06:40:12;98068.59;;;13.03;63.88
62402;BME280;48440;51.224;22.506;2023-03-25T06:42:41;98066.78;;;12.99;64.10
62402;BME280;48440;51.224;22.506;2023-03-25T06:45:07;98067.03;;;13.16;63.36
62402;BME280;48440;51.224;22.506;2023-03-25T06:47:33;98067.59;;;13.13;63.15
62402;BME280;48440;51.224;22.506;2023-03-25T06:50:01;98066.47;;;13.00;63.80
62402;BME280;48440;51.224;22.506;2023-03-25T06:52:39;98070.41;;;12.94;63.67
62402;BME280;48440;51.224;22.506;2023-03-25T06:55:05;98071.00;;;12.91;64.37
62402;BME280;48440;51.224;22.506;2023-03-25T06:57:31;98074.63;;;12.86;64.45
62402;BME280;48440;51.224;22.506;2023-03-25T06:59:56;98067.34;;;12.82;64.40
62402;BME280;48440;51.224;22.506;2023-03-25T07:02:22;98066.31;;;12.78;64.07
62402;BME280;48440;51.224;22.506;2023-03-25T07:04:47;98070.53;;;12.70;64.55
62402;BME280;48440;51.224;22.506;2023-03-25T07:07:12;98065.41;;;12.69;64.59
62402;BME280;48440;51.224;22.506;2023-03-25T07:09:38;98064.59;;;12.68;65.28
62402;BME280;48440;51.224;22.506;2023-03-25T07:12:04;98068.72;;;12.66;64.96
62402;BME280;48440;51.224;22.506;2023-03-25T07:14:29;98075.78;;;12.67;65.21
62402;BME280;48440;51.224;22.506;2023-03-25T07:16:54;98071.13;;;12.67;65.17
62402;BME280;48440;51.224;22.506;2023-03-25T07:19:20;98082.53;;;12.69;65.56
62402;BME280;48440;51.224;22.506;2023-03-25T07:21:46;98083.34;;;12.70;65.27
62402;BME280;48440;51.224;22.506;2023-03-25T07:24:12;98077.09;;;12.69;65.30
62402;BME280;48440;51.224;22.506;2023-03-25T07:26:38;98079.00;;;12.69;65.24
62402;BME280;48440;51.224;22.506;2023-03-25T07:29:03;98069.16;;;12.73;65.25
62402;BME280;48440;51.224;22.506;2023-03-25T07:31:28;98068.94;;;12.83;64.75
62402;BME280;48440;51.224;22.506;2023-03-25T07:33:57;98065.03;;;12.89;64.60
62402;BME280;48440;51.224;22.506;2023-03-25T07:36:24;98073.94;;;12.95;64.58
62402;BME280;48440;51.224;22.506;2023-03-25T07:38:49;98066.88;;;13.07;63.95
62402;BME280;48440;51.224;22.506;2023-03-25T07:41:15;98078.78;;;13.11;63.91
62402;BME280;48440;51.224;22.506;2023-03-25T07:43:40;98078.75;;;13.16;64.25
62402;BME280;48440;51.224;22.506;2023-03-25T07:46:07;98083.66;;;13.14;64.01
62402;BME280;48440;51.224;22.506;2023-03-25T07:48:32;98081.22;;;13.13;63.77
62402;BME280;48440;51.224;22.506;2023-03-25T07:50:58;98067.38;;;13.09;64.37
62402;BME280;48440;51.224;22.506;2023-03-25T07:53:23;98082.13;;;13.08;64.57
62402;BME280;48440;51.224;22.506;2023-03-25T07:56:45;98077.06;;;13.02;64.53
62402;BME280;48440;51.224;22.506;2023-03-25T07:59:39;98076.25;;;13.01;64.01
62402;BME280;48440;51.224;22.506;2023-03-25T08:09:14;98089.75;;;13.52;62.63
62402;BME280;48440;51.224;22.506;2023-03-25T09:23:36;98085.81;;;13.17;63.77
62402;BME280;48440;51.224;22.506;2023-03-25T09:26:46;98078.19;;;13.14;63.62
62402;BME280;48440;51.224;22.506;2023-03-25T09:29:33;98089.25;;;13.23;64.38
62402;BME280;48440;51.224;22.506;2023-03-25T09:31:59;98086.91;;;13.30;64.23
62402;BME280;48440;51.224;22.506;2023-03-25T09:34:25;98087.94;;;13.34;64.67
62402;BME280;48440;51.224;22.506;2023-03-25T09:36:52;98079.75;;;13.34;64.02
62402;BME280;48440;51.224;22.506;2023-03-25T09:39:18;98080.78;;;13.38;63.47
62402;BME280;48440;51.224;22.506;2023-03-25T09:41:56;98083.28;;;13.35;63.02
62402;BME280;48440;51.224;22.506;2023-03-25T09:47:10;98081.97;;;13.32;64.20
62402;BME280;48440;51.224;22.506;2023-03-25T09:49:42;98087.63;;;13.36;64.24
62402;BME280;48440;51.224;22.506;2023-03-25T09:52:14;98085.19;;;13.34;64.24
62402;BME280;48440;51.224;22.506;2023-03-25T09:54:47;98096.31;;;13.38;64.43
62402;BME280;48440;51.224;22.506;2023-03-25T09:57:19;98095.72;;;13.41;64.52
62402;BME280;48440;51.224;22.506;2023-03-25T09:59:47;98088.84;;;13.43;64.09
62402;BME280;48440;51.224;22.506;2023-03-25T10:07:46;98086.81;;;13.35;64.16
62402;BME280;48440;51.224;22.506;2023-03-25T10:12:58;98088.31;;;13.28;63.90
62402;BME280;48440;51.224;22.506;2023-03-25T10:15:39;98076.22;;;13.20;64.04
62402;BME280;48440;51.224;22.506;2023-03-25T10:18:36;98076.28;;;13.15;64.60
62402;BME280;48440;51.224;22.506;2023-03-25T10:29:03;98072.19;;;13.17;64.69
62402;BME280;48440;51.224;22.506;2023-03-25T10:31:34;98074.31;;;13.20;64.54
62402;BME280;48440;51.224;22.506;2023-03-25T10:34:07;98074.00;;;13.22;64.76
62402;BME280;48440;51.224;22.506;2023-03-25T10:36:43;98069.25;;;13.28;65.05
62402;BME280;48440;51.224;22.506;2023-03-25T10:39:19;98076.53;;;13.32;64.24
62402;BME280;48440;51.224;22.506;2023-03-25T10:41:50;98070.78;;;13.34;64.52
62402;BME280;48440;51.224;22.506;2023-03-25T10:44:17;98060.78;;;13.43;64.45
62402;BME280;48440;51.224;22.506;2023-03-25T10:47:09;98068.66;;;13.44;63.46
62402;BME280;48440;51.224;22.506;2023-03-25T10:49:39;98073.53;;;13.47;63.89
62402;BME280;48440;51.224;22.506;2023-03-25T10:52:06;98068.28;;;13.51;62.98
62402;BME280;48440;51.224;22.506;2023-03-25T10:54:40;98065.31;;;13.61;62.22
62402;BME280;48440;51.224;22.506;2023-03-25T10:57:08;98061.59;;;13.57;62.30
62402;BME280;48440;51.224;22.506;2023-03-25T11:02:19;98052.19;;;13.63;63.58
62402;BME280;48440;51.224;22.506;2023-03-25T11:04:49;98047.66;;;13.72;62.91
62402;BME280;48440;51.224;22.506;2023-03-25T11:10:07;98048.97;;;13.75;62.21
62402;BME280;48440;51.224;22.506;2023-03-25T11:12:33;98051.56;;;13.80;61.67
62402;BME280;48440;51.224;22.506;2023-03-25T11:15:01;98051.88;;;13.78;61.69
62402;BME280;48440;51.224;22.506;2023-03-25T11:17:27;98056.22;;;13.79;61.35
62402;BME280;48440;51.224;22.506;2023-03-25T11:19:58;98047.63;;;13.86;61.89
62402;BME280;48440;51.224;22.506;2023-03-25T11:22:47;98048.41;;;14.00;61.85
62402;BME280;48440;51.224;22.506;2023-03-25T11:25:25;98040.28;;;14.09;60.92
62402;BME280;48440;51.224;22.506;2023-03-25T11:27:55;98038.97;;;14.06;59.98
62402;BME280;48440;51.224;22.506;2023-03-25T11:30:22;98045.75;;;14.09;59.61
62402;BME280;48440;51.224;22.506;2023-03-25T11:33:14;98033.72;;;14.10;61.18
62402;BME280;48440;51.224;22.506;2023-03-25T11:35:42;98041.41;;;14.08;60.45
62402;BME280;48440;51.224;22.506;2023-03-25T11:38:18;98037.94;;;14.16;59.22
62402;BME280;48440;51.224;22.506;2023-03-25T11:40:55;98036.34;;;14.15;57.92
62402;BME280;48440;51.224;22.506;2023-03-25T11:43:23;98034.41;;;14.15;57.47
62402;BME280;48440;51.224;22.506;2023-03-25T11:45:49;98027.97;;;14.11;57.43
62402;BME280;48440;51.224;22.506;2023-03-25T11:48:18;98029.88;;;14.11;57.54
62402;BME280;48440;51.224;22.506;2023-03-25T11:50:56;98026.03;;;14.12;57.66
62402;BME280;48440;51.224;22.506;2023-03-25T11:53:31;98020.47;;;14.17;56.98
62402;BME280;48440;51.224;22.506;2023-03-25T11:56:38;98027.63;;;14.26;57.29
62402;BME280;48440;51.224;22.506;2023-03-25T11:59:15;98022.81;;;14.32;57.59
62402;BME280;48440;51.224;22.506;2023-03-25T12:08:17;98008.03;;;14.47;54.34
62402;BME280;48440;51.224;22.506;2023-03-25T12:11:22;98016.13;;;14.52;53.01
62402;BME280;48440;51.224;22.506;2023-03-25T12:14:23;98010.81;;;14.55;53.10
62402;BME280;48440;51.224;22.506;2023-03-25T12:37:08;97982.56;;;14.51;55.46
62402;BME280;48440;51.224;22.506;2023-03-25T12:43:01;97970.75;;;14.42;54.79
62402;BME280;48440;51.224;22.506;2023-03-25T12:53:35;97950.75;;;14.33;54.78
62402;BME280;48440;51.224;22.506;2023-03-25T13:19:39;97926.81;;;14.30;53.81
62402;BME280;48440;51.224;22.506;2023-03-25T13:40:06;97916.41;;;14.54;53.46
62402;BME280;48440;51.224;22.506;2023-03-25T13:47:00;97916.50;;;14.72;53.36
62402;BME280;48440;51.224;22.506;2023-03-25T13:50:02;97919.72;;;14.74;53.59
62402;BME280;48440;51.224;22.506;2023-03-25T14:12:48;97906.97;;;14.38;50.75
62402;BME280;48440;51.224;22.506;2023-03-25T14:15:32;97904.38;;;14.33;50.79
62402;BME280;48440;51.224;22.506;2023-03-25T14:18:02;97903.41;;;14.29;51.39
62402;BME280;48440;51.224;22.506;2023-03-25T14:20:35;97893.63;;;14.28;50.55
62402;BME280;48440;51.224;22.506;2023-03-25T14:23:03;97887.59;;;14.17;50.86
62402;BME280;48440;51.224;22.506;2023-03-25T14:28:01;97884.63;;;14.05;51.41
62402;BME280;48440;51.224;22.506;2023-03-25T14:30:28;97879.47;;;14.04;51.08
62402;BME280;48440;51.224;22.506;2023-03-25T14:32:55;97885.75;;;14.04;51.15
62402;BME280;48440;51.224;22.506;2023-03-25T14:46:04;97866.53;;;14.09;51.03
62402;BME280;48440;51.224;22.506;2023-03-25T14:48:35;97863.97;;;14.13;50.68
62402;BME280;48440;51.224;22.506;2023-03-25T14:51:08;97865.22;;;14.07;50.84
62402;BME280;48440;51.224;22.506;2023-03-25T14:53:36;97858.81;;;14.03;51.16
62402;BME280;48440;51.224;22.506;2023-03-25T14:56:06;97854.28;;;13.98;51.68
62402;BME280;48440;51.224;22.506;2023-03-25T14:58:36;97865.63;;;13.91;51.60
62402;BME280;48440;51.224;22.506;2023-03-25T15:01:11;97868.34;;;13.91;52.33
62402;BME280;48440;51.224;22.506;2023-03-25T15:03:40;97879.75;;;13.93;51.95
62402;BME280;48440;51.224;22.506;2023-03-25T15:06:14;97887.75;;;13.90;52.46
62402;BME280;48440;51.224;22.506;2023-03-25T15:08:52;97873.31;;;13.89;52.20
62402;BME280;48440;51.224;22.506;2023-03-25T15:11:34;97877.63;;;13.90;52.65
62402;BME280;48440;51.224;22.506;2023-03-25T15:14:08;97876.03;;;13.89;52.70
62402;BME280;48440;51.224;22.506;2023-03-25T15:16:38;97867.03;;;13.89;52.50
62402;BME280;48440;51.224;22.506;2023-03-25T15:19:19;97866.53;;;13.87;52.33
62402;BME280;48440;51.224;22.506;2023-03-25T15:24:31;97868.47;;;13.86;52.25
62402;BME280;48440;51.224;22.506;2023-03-25T15:35:25;97867.44;;;13.74;53.04
62402;BME280;48440;51.224;22.506;2023-03-25T15:41:00;97867.34;;;13.65;54.74
62402;BME280;48440;51.224;22.506;2023-03-25T15:43:35;97877.44;;;13.65;55.13
62402;BME280;48440;51.224;22.506;2023-03-25T15:53:51;97964.63;;;13.42;54.87
62402;BME280;48440;51.224;22.506;2023-03-25T15:56:23;97980.47;;;13.27;55.49
62402;BME280;48440;51.224;22.506;2023-03-25T15:58:51;97990.13;;;13.05;59.30
62402;BME280;48440;51.224;22.506;2023-03-25T16:01:24;98000.00;;;12.87;62.68
62402;BME280;48440;51.224;22.506;2023-03-25T16:04:05;98005.09;;;12.62;65.39
62402;BME280;48440;51.224;22.506;2023-03-25T16:06:39;97998.91;;;12.42;67.41
62402;BME280;48440;51.224;22.506;2023-03-25T16:09:11;98002.97;;;12.26;68.54
62402;BME280;48440;51.224;22.506;2023-03-25T16:11:43;98008.50;;;12.21;68.41
62402;BME280;48440;51.224;22.506;2023-03-25T16:14:16;98011.09;;;12.12;69.48
62402;BME280;48440;51.224;22.506;2023-03-25T16:16:46;98012.25;;;12.06;69.74
62402;BME280;48440;51.224;22.506;2023-03-25T16:19:29;98010.00;;;11.95;70.67
62402;BME280;48440;51.224;22.506;2023-03-25T16:22:01;98012.84;;;11.84;71.58
62402;BME280;48440;51.224;22.506;2023-03-25T16:24:28;98022.97;;;11.79;71.70
62402;BME280;48440;51.224;22.506;2023-03-25T16:27:08;98017.03;;;11.77;71.99
62402;BME280;48440;51.224;22.506;2023-03-25T16:29:36;97999.06;;;11.76;71.54
62402;BME280;48440;51.224;22.506;2023-03-25T16:32:04;97992.84;;;11.75;72.18
62402;BME280;48440;51.224;22.506;2023-03-25T16:34:34;97968.25;;;11.67;72.29
62402;BME280;48440;51.224;22.506;2023-03-25T16:37:02;97965.25;;;11.68;71.80
62402;BME280;48440;51.224;22.506;2023-03-25T16:39:31;97952.31;;;11.60;71.53
62402;BME280;48440;51.224;22.506;2023-03-25T16:42:03;97958.69;;;11.50;72.75
62402;BME280;48440;51.224;22.506;2023-03-25T16:44:31;97945.53;;;11.39;72.91
62402;BME280;48440;51.224;22.506;2023-03-25T16:46:59;97956.47;;;11.34;73.58
62402;BME280;48440;51.224;22.506;2023-03-25T16:49:34;97952.84;;;11.19;73.58
62402;BME280;48440;51.224;22.506;2023-03-25T16:52:06;97952.75;;;11.06;74.78
62402;BME280;48440;51.224;22.506;2023-03-25T16:54:46;97950.03;;;11.06;74.91
62402;BME280;48440;51.224;22.506;2023-03-25T16:57:26;97955.56;;;10.96;74.45
62402;BME280;48440;51.224;22.506;2023-03-25T16:59:53;97949.56;;;10.75;75.80
62402;BME280;48440;51.224;22.506;2023-03-25T17:02:28;97952.34;;;10.70;76.46
62402;BME280;48440;51.224;22.506;2023-03-25T17:05:11;97953.59;;;10.53;76.74
62402;BME280;48440;51.224;22.506;2023-03-25T17:07:39;97953.66;;;10.48;77.48
62402;BME280;48440;51.224;22.506;2023-03-25T17:10:16;97954.66;;;10.58;76.73
62402;BME280;48440;51.224;22.506;2023-03-25T17:12:42;97961.84;;;10.67;76.27
62402;BME280;48440;51.224;22.506;2023-03-25T17:15:14;97967.19;;;10.77;75.91
62402;BME280;48440;51.224;22.506;2023-03-25T17:17:43;97972.28;;;10.84;75.33
62402;BME280;48440;51.224;22.506;2023-03-25T17:20:20;97971.94;;;10.91;75.26
62402;BME280;48440;51.224;22.506;2023-03-25T17:23:00;97973.25;;;10.93;75.23
62402;BME280;48440;51.224;22.506;2023-03-25T17:25:31;97972.44;;;10.93;74.90
62402;BME280;48440;51.224;22.506;2023-03-25T17:30:47;97989.59;;;10.88;75.80
62402;BME280;48440;51.224;22.506;2023-03-25T17:33:38;97979.03;;;10.86;76.03
62402;BME280;48440;51.224;22.506;2023-03-25T17:36:09;97982.84;;;10.85;76.02
62402;BME280;48440;51.224;22.506;2023-03-25T17:38:41;97992.03;;;10.90;75.86
62402;BME280;48440;51.224;22.506;2023-03-25T17:41:10;97993.41;;;10.87;75.80
62402;BME280;48440;51.224;22.506;2023-03-25T17:43:46;98003.19;;;10.88;75.15
62402;BME280;48440;51.224;22.506;2023-03-25T17:49:16;98003.22;;;10.83;75.06
62402;BME280;48440;51.224;22.506;2023-03-25T17:51:44;97997.50;;;10.84;74.95
62402;BME280;48440;51.224;22.506;2023-03-25T17:54:11;98013.50;;;10.86;74.80
62402;BME280;48440;51.224;22.506;2023-03-25T17:56:37;98016.50;;;10.84;74.62
62402;BME280;48440;51.224;22.506;2023-03-25T17:59:06;98011.13;;;10.79;74.83
62402;BME280;48440;51.224;22.506;2023-03-25T18:01:33;98012.78;;;10.75;74.92
62402;BME280;48440;51.224;22.506;2023-03-25T18:04:00;98007.94;;;10.72;74.95
62402;BME280;48440;51.224;22.506;2023-03-25T18:06:26;97997.72;;;10.64;75.42
62402;BME280;48440;51.224;22.506;2023-03-25T18:08:51;97996.16;;;10.58;75.28
62402;BME280;48440;51.224;22.506;2023-03-25T18:11:18;97996.16;;;10.58;75.50
62402;BME280;48440;51.224;22.506;2023-03-25T18:13:43;97987.72;;;10.60;75.31
62402;BME280;48440;51.224;22.506;2023-03-25T18:16:19;97988.28;;;10.57;75.54
62402;BME280;48440;51.224;22.506;2023-03-25T18:18:45;97982.59;;;10.58;75.66
62402;BME280;48440;51.224;22.506;2023-03-25T18:21:12;97985.66;;;10.46;75.53
62402;BME280;48440;51.224;22.506;2023-03-25T18:23:40;97990.75;;;10.53;75.82
62402;BME280;48440;51.224;22.506;2023-03-25T18:26:13;97997.81;;;10.54;76.32
62402;BME280;48440;51.224;22.506;2023-03-25T18:28:39;98011.09;;;10.56;76.27
62402;BME280;48440;51.224;22.506;2023-03-25T18:31:11;98031.16;;;10.54;76.79
62402;BME280;48440;51.224;22.506;2023-03-25T18:33:46;98058.22;;;10.65;76.27
62402;BME280;48440;51.224;22.506;2023-03-25T18:36:13;98067.34;;;10.74;76.16
62402;BME280;48440;51.224;22.506;2023-03-25T18:38:39;98059.69;;;10.81;75.76
62402;BME280;48440;51.224;22.506;2023-03-25T18:41:05;98054.25;;;10.81;75.50
62402;BME280;48440;51.224;22.506;2023-03-25T18:43:30;98063.50;;;10.80;75.20
62402;BME280;48440;51.224;22.506;2023-03-25T18:45:56;98067.06;;;10.75;74.95
62402;BME280;48440;51.224;22.506;2023-03-25T18:48:21;98052.41;;;10.76;74.90
62402;BME280;48440;51.224;22.506;2023-03-25T18:50:58;98050.22;;;10.78;74.53
62402;BME280;48440;51.224;22.506;2023-03-25T18:53:25;98046.63;;;10.83;73.85
62402;BME280;48440;51.224;22.506;2023-03-25T18:55:52;98042.88;;;10.79;73.47
62402;BME280;48440;51.224;22.506;2023-03-25T18:58:24;98043.44;;;10.76;73.61
62402;BME280;48440;51.224;22.506;2023-03-25T19:00:51;98049.44;;;10.73;73.46
62402;BME280;48440;51.224;22.506;2023-03-25T19:03:18;98047.53;;;10.73;73.63
62402;BME280;48440;51.224;22.506;2023-03-25T19:05:45;98047.84;;;10.67;73.82
62402;BME280;48440;51.224;22.506;2023-03-25T19:08:18;98056.59;;;10.64;74.39
62402;BME280;48440;51.224;22.506;2023-03-25T19:10:45;98050.69;;;10.57;74.48
62402;BME280;48440;51.224;22.506;2023-03-25T19:13:11;98046.09;;;10.52;74.86
62402;BME280;48440;51.224;22.506;2023-03-25T19:15:37;98037.69;;;10.53;75.24
62402;BME280;48440;51.224;22.506;2023-03-25T19:18:03;98022.25;;;10.49;75.28
62402;BME280;48440;51.224;22.506;2023-03-25T19:20:34;98012.19;;;10.54;74.65
62402;BME280;48440;51.224;22.506;2023-03-25T19:23:01;98013.28;;;10.53;74.45
62402;BME280;48440;51.224;22.506;2023-03-25T19:25:27;98022.25;;;10.49;74.60
62402;BME280;48440;51.224;22.506;2023-03-25T19:27:53;98021.78;;;10.42;75.60
62402;BME280;48440;51.224;22.506;2023-03-25T19:30:21;98019.13;;;10.37;75.36
62402;BME280;48440;51.224;22.506;2023-03-25T19:32:48;98016.69;;;10.35;75.42
62402;BME280;48440;51.224;22.506;2023-03-25T19:35:16;98017.78;;;10.34;75.52
62402;BME280;48440;51.224;22.506;2023-03-25T19:37:43;98013.50;;;10.28;76.09
62402;BME280;48440;51.224;22.506;2023-03-25T19:40:16;98011.88;;;10.27;75.95
62402;BME280;48440;51.224;22.506;2023-03-25T19:42:43;98014.06;;;10.25;75.60
62402;BME280;48440;51.224;22.506;2023-03-25T19:45:10;98015.41;;;10.28;75.47
62402;BME280;48440;51.224;22.506;2023-03-25T19:47:38;98021.63;;;10.28;75.94
62402;BME280;48440;51.224;22.506;2023-03-25T19:50:21;98025.97;;;10.29;75.30
62402;BME280;48440;51.224;22.506;2023-03-25T19:52:49;98014.34;;;10.24;75.91
62402;BME280;48440;51.224;22.506;2023-03-25T19:55:15;98019.75;;;10.24;75.81
62402;BME280;48440;51.224;22.506;2023-03-25T19:57:42;98026.28;;;10.23;76.00
62402;BME280;48440;51.224;22.506;2023-03-25T20:00:11;98026.03;;;10.19;77.06
62402;BME280;48440;51.224;22.506;2023-03-25T20:02:41;98023.31;;;10.14;77.51
62402;BME280;48440;51.224;22.506;2023-03-25T20:05:09;98025.19;;;10.18;77.14